Terminal Aerodrome Forecast
Issued by NWS Portland, ME

Home | Current Version | Previous Version | Text Only | Print | Product List | Glossary On
Versions: 1 2 3 4 5 6 7 8 9 10 11 12 13 14 15 16 17
666
FTUS41 KGYX 181158 AAA
TAFCON
TAF AMD
KCON 181158Z 1812/1912 VRB03KT 3SM -SN BR SCT025 OVC035
     FM181300 VRB03KT 2SM -SN BR SCT008 BKN025
     FM181800 VRB03KT 4SM BR OVC015
      TEMPO 1821/1824 4SM -FZRA OVC015=

USA.gov is the U.S. government's official web portal to all federal, state and local government web resources and services.